createdAt,value
2022-10-11T05:01:07.592Z,101388
2022-10-11T05:07:20.013Z,101393
2022-10-11T05:13:19.076Z,101395
2022-10-11T05:19:14.657Z,101393
2022-10-11T05:25:18.166Z,101401
2022-10-11T05:31:23.949Z,101406
2022-10-11T05:37:21.160Z,101407
2022-10-11T05:43:15.399Z,101410
2022-10-11T05:49:07.362Z,101415
2022-10-11T05:55:08.568Z,101421
2022-10-11T06:01:10.834Z,101426
2022-10-11T06:07:04.532Z,101433
2022-10-11T06:13:00.708Z,101439
2022-10-11T06:25:24.143Z,101445
2022-10-11T06:31:19.134Z,101451
2022-10-11T06:37:19.297Z,101462
2022-10-11T06:43:22.120Z,101465
2022-10-11T06:49:29.855Z,101470
2022-10-11T06:55:21.557Z,101476
2022-10-11T07:02:07.248Z,101484
2022-10-11T07:08:21.694Z,101497
2022-10-11T07:14:39.189Z,101502
2022-10-11T07:20:44.562Z,101515
2022-10-11T07:33:16.671Z,101521
2022-10-11T07:39:44.302Z,101524
2022-10-11T07:45:40.695Z,101522
2022-10-11T07:58:06.560Z,101540
2022-10-11T08:04:03.906Z,101540
2022-10-11T08:10:19.010Z,101546
2022-10-11T08:29:56.226Z,101551
2022-10-11T08:36:08.548Z,101558
2022-10-11T08:42:27.643Z,101558
2022-10-11T08:48:43.906Z,101566
2022-10-11T08:54:49.060Z,101562
2022-10-11T09:01:02.813Z,101561
2022-10-11T09:26:41.311Z,101554
2022-10-11T09:32:51.709Z,101558
2022-10-11T09:39:00.901Z,101555
2022-10-11T09:44:58.878Z,101551
2022-10-11T09:50:49.511Z,101556
2022-10-11T09:56:47.246Z,101549
2022-10-11T10:02:48.628Z,101546
2022-10-11T10:08:42.255Z,101549
2022-10-11T10:14:42.551Z,101544
2022-10-11T10:20:34.399Z,101543
2022-10-11T10:26:30.058Z,101549
2022-10-11T10:32:25.739Z,101546
2022-10-11T10:38:27.126Z,101542
2022-10-11T10:44:34.986Z,101530
2022-10-11T10:50:26.441Z,101534
2022-10-11T10:56:24.570Z,101530
2022-10-11T11:02:43.435Z,101530
2022-10-11T11:08:34.457Z,101526
2022-10-11T11:14:36.018Z,101516
2022-10-11T19:31:35.943Z,101368
2022-10-11T19:55:55.006Z,101371
2022-10-11T20:45:43.604Z,101360
2022-10-11T22:39:34.473Z,101344
2022-10-11T22:45:28.061Z,101350
2022-10-11T22:51:22.267Z,101344
2022-10-11T22:57:29.156Z,101350
2022-10-11T23:03:24.816Z,101357
2022-10-11T23:09:23.171Z,101360
2022-10-11T23:15:29.915Z,101354
2022-10-11T23:21:23.505Z,101358
2022-10-11T23:27:18.722Z,101357
2022-10-11T23:33:22.928Z,101354
2022-10-11T23:39:16.825Z,101353
2022-10-11T23:45:25.742Z,101349
2022-10-11T23:51:23.907Z,101363
2022-10-11T23:57:26.208Z,101358
